createdAt,value
2023-03-30T00:02:05.347Z,7.97
2023-03-30T00:04:34.714Z,8.40
2023-03-30T00:07:01.379Z,10.10
2023-03-30T00:09:30.870Z,7.50
2023-03-30T00:12:02.800Z,7.17
2023-03-30T00:14:29.774Z,8.93
2023-03-30T00:16:57.102Z,8.33
2023-03-30T00:19:23.628Z,7.13
2023-03-30T00:21:50.935Z,10.97
2023-03-30T00:24:17.412Z,8.87
2023-03-30T00:26:43.891Z,8.47
2023-03-30T00:29:10.549Z,7.77
2023-03-30T00:31:37.427Z,8.90
2023-03-30T00:34:03.906Z,8.90
2023-03-30T00:36:30.616Z,5.80
2023-03-30T00:38:57.149Z,8.93
2023-03-30T00:41:23.602Z,7.30
2023-03-30T00:43:57.358Z,8.57
2023-03-30T00:46:23.998Z,7.10
2023-03-30T00:48:50.668Z,8.93
2023-03-30T00:51:17.797Z,7.80
2023-03-30T00:53:47.219Z,8.20
2023-03-30T00:56:16.106Z,7.83
2023-03-30T00:58:43.670Z,9.47
2023-03-30T01:01:12.137Z,6.37
2023-03-30T01:03:43.544Z,11.17
2023-03-30T01:06:22.099Z,9.20
2023-03-30T01:08:49.246Z,8.60
2023-03-30T01:11:15.812Z,6.77
2023-03-30T01:13:44.537Z,8.17
2023-03-30T01:16:30.341Z,8.50
2023-03-30T01:19:26.198Z,9.80
2023-03-30T01:22:04.823Z,8.87
2023-03-30T01:24:53.511Z,7.93
2023-03-30T01:27:46.255Z,7.83
2023-03-30T01:30:31.791Z,8.17
2023-03-30T01:32:58.308Z,7.17
2023-03-30T01:35:24.880Z,6.37
2023-03-30T01:37:51.447Z,6.47
2023-03-30T01:40:23.790Z,7.17
2023-03-30T01:43:23.376Z,6.03
2023-03-30T01:46:01.499Z,8.30
2023-03-30T01:48:35.795Z,7.77
2023-03-30T01:51:09.976Z,6.20
2023-03-30T01:53:43.090Z,6.53
2023-03-30T01:56:09.558Z,6.80
2023-03-30T01:58:39.377Z,6.87
2023-03-30T02:01:09.257Z,4.87
2023-03-30T02:03:38.877Z,6.20
2023-03-30T02:06:10.583Z,5.53
2023-03-30T02:08:38.207Z,6.17
2023-03-30T02:11:05.007Z,5.87
2023-03-30T02:13:32.856Z,6.90
2023-03-30T02:16:02.915Z,6.67
2023-03-30T02:18:29.433Z,5.70
2023-03-30T02:20:58.925Z,9.20
2023-03-30T02:23:28.251Z,6.10
2023-03-30T02:25:55.380Z,5.77
2023-03-30T02:28:22.376Z,4.80
2023-03-30T02:30:48.840Z,7.57
2023-03-30T02:33:38.866Z,6.20
2023-03-30T02:36:11.823Z,6.87
2023-03-30T02:38:51.696Z,8.67
2023-03-30T02:41:32.858Z,6.67
2023-03-30T02:44:06.755Z,7.30
2023-03-30T02:46:33.175Z,8.33
2023-03-30T02:49:02.476Z,6.93
2023-03-30T02:51:32.057Z,8.57
2023-03-30T02:54:06.754Z,8.63
2023-03-30T02:56:34.033Z,7.70
2023-03-30T02:59:06.044Z,9.50
2023-03-30T03:01:32.524Z,7.43
2023-03-30T03:04:00.139Z,18.70
2023-03-30T03:06:27.418Z,10.33
2023-03-30T03:08:54.868Z,10.50
2023-03-30T03:11:21.901Z,13.43
2023-03-30T03:13:48.622Z,9.03
2023-03-30T03:16:15.594Z,9.80
2023-03-30T03:18:42.237Z,8.70
2023-03-30T03:21:10.072Z,7.43
2023-03-30T03:23:36.724Z,8.30
2023-03-30T03:26:03.929Z,10.90
2023-03-30T03:28:30.594Z,7.37
2023-03-30T03:30:58.468Z,7.63
2023-03-30T03:33:28.110Z,10.50
2023-03-30T03:35:55.033Z,10.50
2023-03-30T03:38:25.038Z,10.27
2023-03-30T03:40:52.634Z,11.77
2023-03-30T03:43:19.139Z,11.53
2023-03-30T03:45:46.821Z,9.63
2023-03-30T03:48:14.157Z,12.90
2023-03-30T03:50:41.563Z,11.63
2023-03-30T03:53:08.536Z,10.27
2023-03-30T03:55:35.393Z,11.83
2023-03-30T03:58:02.457Z,11.33
2023-03-30T04:00:29.366Z,8.30
2023-03-30T04:02:55.929Z,10.50
2023-03-30T04:05:22.702Z,10.63
2023-03-30T04:07:49.202Z,11.17
2023-03-30T04:10:15.941Z,12.47
2023-03-30T04:12:42.380Z,21.80
2023-03-30T04:15:10.756Z,25.07
2023-03-30T04:17:37.379Z,18.87
2023-03-30T04:20:12.153Z,17.63
2023-03-30T04:22:42.092Z,18.00
2023-03-30T04:25:09.738Z,19.73
2023-03-30T04:27:37.752Z,18.93
2023-03-30T04:30:05.591Z,17.10
2023-03-30T04:32:34.919Z,13.67
2023-03-30T04:35:01.672Z,12.90
2023-03-30T04:37:30.884Z,26.67
2023-03-30T04:39:58.252Z,55.73
2023-03-30T04:42:34.186Z,22.30
2023-03-30T04:45:01.041Z,21.10
2023-03-30T04:47:28.003Z,20.73
2023-03-30T04:49:54.755Z,18.03
2023-03-30T04:52:21.265Z,22.10
2023-03-30T04:54:47.706Z,18.10
2023-03-30T04:57:15.126Z,15.03
2023-03-30T04:59:42.125Z,17.60
2023-03-30T05:02:09.214Z,17.03
2023-03-30T05:04:36.002Z,19.53
2023-03-30T05:07:02.532Z,15.37
2023-03-30T05:09:28.990Z,19.00
2023-03-30T05:11:55.484Z,15.53
2023-03-30T05:14:22.011Z,51.93
2023-03-30T05:16:48.540Z,33.57
2023-03-30T05:19:15.215Z,24.70
2023-03-30T05:21:41.724Z,23.83
2023-03-30T05:24:08.196Z,21.23
2023-03-30T05:26:34.721Z,16.03
2023-03-30T05:29:04.866Z,14.40
2023-03-30T05:31:31.736Z,18.57
2023-03-30T05:33:58.225Z,17.63
2023-03-30T05:36:24.766Z,17.07
2023-03-30T05:38:51.434Z,15.07
2023-03-30T05:41:17.901Z,16.87
2023-03-30T05:43:44.354Z,14.63
2023-03-30T05:46:11.033Z,12.40
2023-03-30T05:48:37.578Z,14.10
2023-03-30T05:51:04.470Z,16.73
2023-03-30T05:53:31.131Z,11.60
2023-03-30T05:55:57.652Z,15.57
2023-03-30T05:58:24.395Z,17.93
2023-03-30T06:00:50.874Z,62.58
2023-03-30T06:03:17.551Z,16.93
2023-03-30T06:05:44.175Z,11.20
2023-03-30T06:08:11.986Z,6.77
2023-03-30T06:10:38.511Z,8.17
2023-03-30T06:13:05.585Z,8.13
2023-03-30T06:15:32.883Z,8.67
2023-03-30T06:18:00.430Z,13.13
2023-03-30T06:20:26.989Z,7.57
2023-03-30T06:22:53.442Z,10.87
2023-03-30T06:25:24.732Z,7.20
2023-03-30T06:27:51.514Z,9.23
2023-03-30T06:30:18.058Z,10.23
2023-03-30T06:32:44.650Z,11.10
2023-03-30T06:35:13.443Z,8.83
2023-03-30T06:37:40.510Z,7.47
2023-03-30T06:40:13.520Z,6.33
2023-03-30T06:42:41.778Z,6.87
2023-03-30T06:45:09.340Z,11.63
2023-03-30T06:47:56.519Z,7.03
2023-03-30T06:50:23.346Z,6.43
2023-03-30T06:52:50.006Z,6.90
2023-03-30T06:55:16.535Z,8.77
2023-03-30T06:57:43.274Z,16.00
2023-03-30T07:00:13.918Z,9.87
2023-03-30T07:02:44.037Z,11.60
2023-03-30T07:05:10.727Z,11.13
2023-03-30T07:07:37.289Z,10.97
2023-03-30T07:10:10.515Z,8.70
2023-03-30T07:12:41.435Z,10.87
2023-03-30T07:15:08.958Z,9.00
2023-03-30T07:17:36.054Z,11.33
2023-03-30T07:20:04.047Z,14.43
2023-03-30T07:22:30.483Z,14.00
2023-03-30T07:24:57.011Z,12.90
2023-03-30T07:27:27.252Z,11.87
2023-03-30T07:29:54.382Z,9.73
2023-03-30T07:32:21.341Z,9.77
2023-03-30T07:34:47.789Z,10.57
2023-03-30T07:37:20.288Z,8.83
2023-03-30T07:39:47.923Z,9.40
2023-03-30T07:42:14.564Z,10.87
2023-03-30T07:44:41.148Z,9.90
2023-03-30T07:47:07.930Z,10.07
2023-03-30T07:49:34.794Z,8.77
2023-03-30T07:52:01.472Z,12.20
2023-03-30T07:54:28.028Z,10.80
2023-03-30T07:56:54.540Z,10.10
2023-03-30T07:59:21.984Z,12.10
2023-03-30T08:01:50.394Z,69.23
2023-03-30T08:04:17.498Z,11.73
2023-03-30T08:06:44.477Z,8.10
2023-03-30T08:09:10.995Z,9.40
2023-03-30T08:11:37.505Z,13.03
2023-03-30T08:14:04.189Z,8.73
2023-03-30T08:16:30.968Z,11.07
2023-03-30T08:18:57.581Z,11.40
2023-03-30T08:21:26.004Z,15.50
2023-03-30T08:23:53.054Z,19.33
2023-03-30T08:26:19.545Z,9.30
2023-03-30T08:28:46.217Z,10.30
2023-03-30T08:31:12.823Z,11.07
2023-03-30T08:33:39.827Z,12.23
2023-03-30T08:36:06.489Z,14.10
2023-03-30T08:38:33.462Z,14.37
2023-03-30T08:40:59.949Z,11.80
2023-03-30T08:43:41.943Z,10.00
2023-03-30T08:46:12.324Z,14.10
2023-03-30T08:48:45.462Z,11.80
2023-03-30T08:51:15.378Z,12.53
2023-03-30T08:53:41.978Z,13.13
2023-03-30T08:56:09.810Z,11.27
2023-03-30T08:58:55.092Z,13.27
2023-03-30T09:01:21.619Z,11.37
2023-03-30T09:03:59.145Z,10.30
2023-03-30T09:06:29.422Z,12.93
2023-03-30T09:08:56.032Z,11.17
2023-03-30T09:11:32.005Z,8.90
2023-03-30T09:14:01.746Z,12.37
2023-03-30T09:16:51.300Z,9.20
2023-03-30T09:19:25.118Z,10.40
2023-03-30T09:21:53.370Z,8.63
2023-03-30T09:24:25.172Z,9.97
2023-03-30T09:26:51.613Z,11.40
2023-03-30T09:29:20.042Z,12.20
2023-03-30T09:31:49.619Z,10.63
2023-03-30T09:34:46.851Z,9.63
2023-03-30T09:37:18.585Z,9.50
2023-03-30T09:39:48.556Z,9.10
2023-03-30T09:42:14.953Z,10.77
2023-03-30T09:44:44.995Z,9.53
2023-03-30T09:47:30.549Z,9.30
2023-03-30T09:49:58.536Z,11.13
2023-03-30T09:52:26.711Z,11.33
2023-03-30T09:54:53.336Z,11.70
2023-03-30T09:57:32.858Z,10.57
2023-03-30T10:00:00.611Z,9.37
2023-03-30T10:02:39.074Z,9.23
2023-03-30T10:05:06.663Z,10.10
2023-03-30T10:07:37.837Z,12.07
2023-03-30T10:10:13.253Z,11.97
2023-03-30T10:12:39.780Z,9.83
2023-03-30T10:15:06.744Z,9.60
2023-03-30T10:17:33.332Z,12.40
2023-03-30T10:20:24.722Z,11.70
2023-03-30T10:22:53.322Z,9.47
2023-03-30T10:25:21.458Z,9.77
2023-03-30T10:27:49.557Z,10.40
2023-03-30T10:30:18.742Z,57.53
2023-03-30T10:32:46.817Z,13.33
2023-03-30T10:35:17.581Z,10.20
2023-03-30T10:37:46.480Z,9.43
2023-03-30T10:40:37.280Z,9.33
2023-03-30T10:43:05.439Z,11.77
2023-03-30T10:45:37.754Z,10.03
2023-03-30T10:48:07.402Z,11.30
2023-03-30T10:51:06.393Z,8.23
2023-03-30T10:53:32.905Z,14.40
2023-03-30T10:56:31.602Z,29.67
2023-03-30T10:59:16.793Z,8.60
2023-03-30T11:01:58.265Z,11.63
2023-03-30T11:04:36.818Z,8.23
2023-03-30T11:07:06.221Z,10.33
2023-03-30T11:09:35.758Z,10.17
2023-03-30T11:12:05.651Z,10.67
2023-03-30T11:14:51.893Z,8.20
2023-03-30T11:17:27.458Z,7.90
2023-03-30T11:19:56.564Z,8.23
2023-03-30T11:22:41.753Z,6.23
2023-03-30T11:25:18.555Z,6.77
2023-03-30T11:27:55.617Z,6.63
2023-03-30T11:30:26.722Z,6.50
2023-03-30T11:32:53.308Z,21.63
2023-03-30T11:35:39.259Z,9.40
2023-03-30T11:38:13.125Z,7.17
2023-03-30T11:40:44.467Z,12.07
2023-03-30T11:43:12.450Z,7.37
2023-03-30T11:45:47.337Z,7.40
2023-03-30T11:48:28.947Z,7.20
2023-03-30T11:51:16.006Z,6.30
2023-03-30T11:53:45.339Z,6.43
2023-03-30T11:56:41.386Z,10.37
2023-03-30T11:59:26.521Z,6.83
2023-03-30T12:02:05.764Z,7.57
2023-03-30T12:04:39.161Z,8.67
2023-03-30T12:07:08.803Z,7.37
2023-03-30T12:09:38.603Z,13.77
2023-03-30T12:12:18.973Z,12.00
2023-03-30T12:15:03.791Z,10.57
2023-03-30T12:17:30.557Z,6.60
2023-03-30T12:20:04.941Z,8.00
2023-03-30T12:22:36.687Z,12.67
2023-03-30T12:25:18.693Z,10.67
2023-03-30T12:27:58.751Z,11.30
2023-03-30T12:30:27.702Z,12.93
2023-03-30T12:32:59.064Z,9.70
2023-03-30T12:35:44.343Z,8.70
2023-03-30T12:38:17.332Z,7.70
2023-03-30T12:40:48.572Z,7.50
2023-03-30T12:43:18.033Z,9.37
2023-03-30T12:46:02.367Z,7.23
2023-03-30T12:48:50.944Z,6.53
2023-03-30T12:51:26.165Z,12.57
2023-03-30T12:54:04.658Z,20.63
2023-03-30T12:56:34.181Z,17.00
2023-03-30T12:59:06.830Z,26.17
2023-03-30T13:01:33.336Z,18.70
2023-03-30T13:04:10.816Z,16.47
2023-03-30T13:06:41.128Z,20.20
2023-03-30T13:09:16.423Z,19.47
2023-03-30T13:11:45.209Z,15.20
2023-03-30T13:14:27.236Z,16.53
2023-03-30T13:16:53.751Z,21.87
2023-03-30T13:19:29.159Z,20.33
2023-03-30T13:21:57.630Z,16.60
2023-03-30T13:24:30.579Z,15.97
2023-03-30T13:27:15.798Z,16.40
2023-03-30T13:29:48.560Z,16.70
2023-03-30T13:32:19.554Z,17.80
2023-03-30T13:35:07.557Z,14.90
2023-03-30T13:37:53.131Z,19.03
2023-03-30T13:40:39.686Z,15.97
2023-03-30T13:43:08.228Z,18.37
2023-03-30T13:45:53.775Z,17.63
2023-03-30T13:48:56.631Z,20.10
2023-03-30T13:51:27.467Z,18.17
2023-03-30T13:53:59.264Z,20.10
2023-03-30T13:56:27.377Z,18.40
2023-03-30T13:59:01.956Z,19.80
2023-03-30T14:01:28.501Z,21.60
2023-03-30T14:03:56.686Z,22.60
2023-03-30T14:06:26.476Z,23.87
2023-03-30T14:09:19.146Z,21.53
2023-03-30T14:11:47.928Z,23.83
2023-03-30T14:14:34.671Z,21.87
2023-03-30T14:17:02.321Z,22.03
2023-03-30T14:19:42.167Z,21.57
2023-03-30T14:22:15.765Z,22.17
2023-03-30T14:24:55.823Z,20.23
2023-03-30T14:27:22.541Z,23.17
2023-03-30T14:29:50.543Z,23.47
2023-03-30T14:32:19.576Z,25.77
2023-03-30T14:34:47.462Z,23.30
2023-03-30T14:37:14.123Z,25.83
2023-03-30T14:39:54.300Z,21.37
2023-03-30T14:42:22.234Z,17.60
2023-03-30T14:44:50.509Z,33.20
2023-03-30T14:47:19.198Z,19.33
2023-03-30T14:49:47.601Z,18.03
2023-03-30T14:52:14.374Z,23.57
2023-03-30T14:54:48.668Z,25.67
2023-03-30T14:57:22.724Z,22.43
2023-03-30T15:00:00.163Z,25.43
2023-03-30T15:02:31.080Z,23.13
2023-03-30T15:04:58.093Z,26.30
2023-03-30T15:07:29.173Z,31.00
2023-03-30T15:09:56.621Z,19.97
2023-03-30T15:12:25.278Z,19.00
2023-03-30T15:14:54.651Z,19.40
2023-03-30T15:17:23.214Z,24.80
2023-03-30T15:19:51.000Z,18.57
2023-03-30T15:22:33.253Z,27.47
2023-03-30T15:25:05.123Z,26.23
2023-03-30T15:27:33.210Z,26.30
2023-03-30T15:30:01.698Z,25.33
2023-03-30T15:32:35.289Z,25.37
2023-03-30T15:35:01.823Z,24.50
2023-03-30T15:37:28.675Z,27.87
2023-03-30T15:39:55.225Z,28.40
2023-03-30T15:42:26.217Z,31.90
2023-03-30T15:45:01.582Z,27.97
2023-03-30T15:47:31.753Z,27.37
2023-03-30T15:49:58.264Z,27.53
2023-03-30T15:52:26.919Z,23.83
2023-03-30T15:54:55.427Z,24.17
2023-03-30T15:57:26.750Z,24.33
2023-03-30T15:59:56.429Z,23.03
2023-03-30T16:02:23.385Z,23.67
2023-03-30T16:04:50.401Z,21.83
2023-03-30T16:07:21.180Z,23.27
2023-03-30T16:09:47.760Z,21.77
2023-03-30T16:12:16.819Z,21.00
2023-03-30T16:14:43.472Z,23.63
2023-03-30T16:17:13.024Z,25.73
2023-03-30T16:19:42.798Z,23.07
2023-03-30T16:22:09.867Z,25.77
2023-03-30T16:24:37.713Z,21.63
2023-03-30T16:27:05.096Z,23.07
2023-03-30T16:29:31.739Z,25.90
2023-03-30T16:31:58.577Z,21.73
2023-03-30T16:34:25.436Z,22.83
2023-03-30T16:36:52.860Z,23.20
2023-03-30T16:43:12.280Z,21.47
2023-03-30T16:45:41.371Z,22.77
2023-03-30T16:48:08.105Z,22.50
2023-03-30T16:50:40.634Z,21.10
2023-03-30T16:53:08.961Z,22.13
2023-03-30T16:55:36.448Z,22.23
2023-03-30T16:58:03.365Z,24.90
2023-03-30T17:00:49.166Z,21.97
2023-03-30T17:03:16.111Z,25.00
2023-03-30T17:05:45.723Z,24.93
2023-03-30T17:08:17.928Z,26.57
2023-03-30T17:10:44.390Z,23.90
2023-03-30T17:13:11.579Z,24.53
2023-03-30T17:15:39.180Z,25.33
2023-03-30T17:18:08.956Z,25.40
2023-03-30T17:20:37.118Z,24.87
2023-03-30T17:23:03.908Z,24.00
2023-03-30T17:25:30.795Z,25.73
2023-03-30T17:27:57.658Z,24.70
2023-03-30T17:30:25.535Z,23.63
2023-03-30T17:32:52.450Z,21.93
2023-03-30T17:35:18.994Z,22.73
2023-03-30T17:37:45.884Z,21.90
2023-03-30T17:40:32.752Z,23.03
2023-03-30T17:42:59.285Z,22.90
2023-03-30T17:45:27.379Z,23.33
2023-03-30T17:47:53.979Z,22.77
2023-03-30T17:50:28.362Z,26.40
2023-03-30T17:52:56.766Z,22.93
2023-03-30T17:55:27.232Z,25.90
2023-03-30T17:57:54.219Z,25.40
2023-03-30T18:00:28.913Z,25.90
2023-03-30T18:02:55.827Z,25.87
2023-03-30T18:05:26.765Z,25.53
2023-03-30T18:07:53.620Z,26.37
2023-03-30T18:17:32.221Z,24.80
2023-03-30T18:20:00.230Z,24.43
2023-03-30T18:22:26.698Z,24.23
2023-03-30T18:24:53.198Z,24.87
2023-03-30T18:30:48.840Z,26.00
2023-03-30T18:33:18.231Z,26.57
2023-03-30T18:35:45.790Z,26.23
2023-03-30T18:38:12.987Z,23.80
2023-03-30T18:40:41.772Z,27.70
2023-03-30T18:43:08.218Z,25.40
2023-03-30T18:45:37.604Z,25.00
2023-03-30T18:48:05.374Z,25.57
2023-03-30T18:50:36.315Z,28.13
2023-03-30T18:53:04.260Z,25.67
2023-03-30T18:55:32.312Z,26.50
2023-03-30T18:57:58.986Z,28.93
2023-03-30T19:00:44.315Z,27.07
2023-03-30T19:03:11.653Z,27.60
2023-03-30T19:05:39.686Z,29.77
2023-03-30T19:08:06.587Z,34.73
2023-03-30T19:10:36.012Z,31.53
2023-03-30T19:13:02.475Z,36.03
2023-03-30T19:15:32.152Z,38.77
2023-03-30T19:17:58.704Z,38.20
2023-03-30T19:20:25.925Z,43.37
2023-03-30T19:22:52.844Z,47.37
2023-03-30T19:25:20.139Z,50.50
2023-03-30T19:27:59.575Z,42.37
2023-03-30T19:30:31.473Z,45.23
2023-03-30T19:32:59.255Z,55.10
2023-03-30T19:35:26.152Z,53.37
2023-03-30T19:38:11.515Z,57.73
2023-03-30T19:40:39.015Z,79.70
2023-03-30T19:43:05.711Z,68.90
2023-03-30T19:45:32.318Z,58.87
2023-03-30T19:47:59.187Z,51.10
2023-03-30T19:50:26.851Z,47.77
2023-03-30T19:52:55.247Z,44.73
2023-03-30T19:55:22.105Z,43.67
2023-03-30T19:57:48.574Z,45.13
2023-03-30T20:00:16.570Z,41.80
2023-03-30T20:02:44.242Z,43.20
2023-03-30T20:05:13.064Z,37.83
2023-03-30T20:07:40.998Z,28.77
2023-03-30T20:10:08.212Z,21.23
2023-03-30T20:12:34.853Z,20.40
2023-03-30T20:15:01.703Z,16.37
2023-03-30T20:17:30.016Z,17.13
2023-03-30T20:19:58.191Z,14.83
2023-03-30T20:22:25.551Z,15.40
2023-03-30T20:24:52.121Z,14.90
2023-03-30T20:27:18.640Z,18.43
2023-03-30T20:29:45.177Z,14.40
2023-03-30T20:32:11.660Z,14.30
2023-03-30T20:34:38.105Z,15.30
2023-03-30T20:37:04.575Z,14.07
2023-03-30T20:46:58.701Z,11.53
2023-03-30T20:49:25.709Z,12.07
2023-03-30T20:51:53.239Z,12.97
2023-03-30T20:54:20.596Z,9.73
2023-03-30T20:56:47.128Z,9.53
2023-03-30T20:59:13.650Z,9.23
2023-03-30T21:05:26.979Z,9.87
2023-03-30T21:07:55.191Z,8.87
2023-03-30T21:10:21.808Z,82.83
2023-03-30T21:12:48.264Z,9.40
2023-03-30T21:15:15.254Z,8.27
2023-03-30T21:17:41.799Z,8.70
2023-03-30T21:20:09.378Z,8.00
2023-03-30T21:26:06.194Z,7.70
2023-03-30T21:28:33.665Z,7.73
2023-03-30T21:31:00.841Z,7.33
2023-03-30T21:40:29.325Z,7.00
2023-03-30T21:42:55.919Z,6.10
2023-03-30T21:45:22.471Z,7.43
2023-03-30T21:47:51.574Z,7.43
2023-03-30T21:50:18.044Z,7.13
2023-03-30T21:52:44.471Z,7.47
2023-03-30T21:58:39.164Z,7.57
2023-03-30T22:01:12.179Z,6.60
2023-03-30T22:03:39.727Z,6.40
2023-03-30T22:06:07.935Z,6.13
2023-03-30T22:08:34.954Z,6.13
2023-03-30T22:11:01.366Z,7.13
2023-03-30T22:13:28.459Z,6.90
2023-03-30T22:15:58.855Z,6.73
2023-03-30T22:18:44.074Z,5.83
2023-03-30T22:21:14.908Z,6.53
2023-03-30T22:23:41.397Z,7.57
2023-03-30T22:26:08.424Z,6.53
2023-03-30T22:28:35.450Z,9.17
2023-03-30T22:31:01.893Z,8.90
2023-03-30T22:33:28.900Z,8.73
2023-03-30T22:35:57.111Z,6.73
2023-03-30T22:38:23.724Z,7.53
2023-03-30T22:40:50.204Z,6.57
2023-03-30T22:43:16.648Z,7.23
2023-03-30T22:49:36.052Z,5.93
2023-03-30T22:52:04.812Z,7.67
2023-03-30T22:54:31.775Z,6.27
2023-03-30T22:56:59.055Z,7.80
2023-03-30T22:59:25.950Z,5.93
2023-03-30T23:01:52.400Z,6.07
2023-03-30T23:04:19.467Z,6.40
2023-03-30T23:07:04.491Z,6.93
2023-03-30T23:09:32.118Z,6.23
2023-03-30T23:11:59.666Z,8.00
2023-03-30T23:14:28.916Z,6.33
2023-03-30T23:16:57.747Z,6.27
2023-03-30T23:19:25.997Z,7.87
2023-03-30T23:25:39.627Z,9.33
2023-03-30T23:28:06.427Z,6.40
2023-03-30T23:30:32.850Z,6.20
2023-03-30T23:32:59.377Z,6.30
2023-03-30T23:35:25.966Z,6.90
2023-03-30T23:37:57.672Z,7.80
2023-03-30T23:40:24.118Z,5.80
2023-03-30T23:42:50.820Z,6.83
2023-03-30T23:45:17.330Z,6.53
2023-03-30T23:47:44.049Z,7.63
2023-03-30T23:50:10.665Z,6.07
2023-03-30T23:59:46.424Z,6.77
